West Salem, Illinois
Current Conditions -  °F | °C
As of 12:15 PM on Sunday 21 Dec 2014 (Local Time) from KAJG Reporting Station
Clear Clear  
Wind Chill: 37°   Ceiling: Unl
Heat Index: 43°   Visibility: 10mi
Dew Point: 30°   Wind: 9mph
Humidity: 61%   Direction: 130°SE
Pressure: 30.2"   Gusts: NA
Location:  38.52°N, 88°W
Report Text: KAJG 211815Z AUTO 13008KT 10SM CLR 06/M01 A3020 RMK AO2
Loading
Personal Weather Stations






























Interactive Weather Map New forecast layout! Learn more

10-Day Weather Forecast

Advertisements
Track Severe Weather on mobile